createdAt,value
2022-12-09T00:01:31.339Z,100486.34
2022-12-09T00:04:07.298Z,100484.56
2022-12-09T00:06:36.210Z,100483.59
2022-12-09T00:09:16.987Z,100489.59
2022-12-09T00:11:54.430Z,100491.31
2022-12-09T00:14:26.530Z,100507.78
2022-12-09T00:16:55.207Z,100507.63
2022-12-09T00:19:23.943Z,100500.59
2022-12-09T00:21:54.412Z,100506.59
2022-12-09T00:24:23.449Z,100500.31
2022-12-09T00:26:54.446Z,100496.66
2022-12-09T00:29:23.561Z,100500.00
2022-12-09T00:31:59.151Z,100503.31
2022-12-09T00:34:28.033Z,100493.69
2022-12-09T00:37:05.037Z,100487.41
2022-12-09T00:39:44.534Z,100496.09
2022-12-09T00:42:22.474Z,100489.88
2022-12-09T00:44:56.987Z,100484.81
2022-12-09T00:47:27.293Z,100484.91
2022-12-09T00:50:00.357Z,100493.78
2022-12-09T00:52:29.389Z,100491.31
2022-12-09T00:55:04.380Z,100486.19
2022-12-09T00:57:41.263Z,100489.69
2022-12-09T01:00:19.460Z,100487.09
2022-12-09T01:02:56.968Z,100500.06
2022-12-09T01:05:33.045Z,100488.81
2022-12-09T01:08:02.188Z,100499.28
2022-12-09T01:10:37.872Z,100503.91
2022-12-09T01:13:12.249Z,100499.66
2022-12-09T01:15:41.804Z,100502.53
2022-12-09T01:18:13.546Z,100493.28
2022-12-09T01:20:45.537Z,100494.31
2022-12-09T01:23:14.963Z,100487.41
2022-12-09T01:25:44.234Z,100496.28
2022-12-09T01:28:14.620Z,100486.59
2022-12-09T01:30:47.768Z,100484.06
2022-12-09T01:33:16.772Z,100489.44
2022-12-09T01:35:50.159Z,100505.09
2022-12-09T01:38:18.947Z,100496.47
2022-12-09T01:40:53.634Z,100491.19
2022-12-09T01:43:31.765Z,100486.81
2022-12-09T01:46:00.849Z,100501.16
2022-12-09T01:48:37.880Z,100503.28
2022-12-09T01:51:23.541Z,100490.25
2022-12-09T01:53:58.202Z,100489.31
2022-12-09T01:56:34.091Z,100493.44
2022-12-09T01:59:12.841Z,100491.94
2022-12-09T02:01:47.204Z,100492.19
2022-12-09T02:04:18.674Z,100496.97
2022-12-09T02:06:47.772Z,100498.22
2022-12-09T02:09:16.824Z,100497.00
2022-12-09T02:12:05.453Z,100504.63
2022-12-09T02:14:42.698Z,100501.78
2022-12-09T02:17:32.916Z,100498.88
2022-12-09T02:20:19.297Z,100499.41
2022-12-09T02:22:56.588Z,100500.13
2022-12-09T02:25:35.927Z,100497.31
2022-12-09T02:28:59.713Z,100491.84
2022-12-09T02:32:06.087Z,100488.22
2022-12-09T02:34:44.883Z,100491.50
2022-12-09T02:37:22.063Z,100485.94
2022-12-09T02:40:00.330Z,100488.56
2022-12-09T02:42:36.728Z,100482.34
2022-12-09T02:45:11.868Z,100491.00
2022-12-09T02:47:48.256Z,100486.50
2022-12-09T02:50:25.428Z,100482.91
2022-12-09T02:53:00.116Z,100485.44
2022-12-09T02:55:38.603Z,100484.34
2022-12-09T02:58:07.448Z,100489.56
2022-12-09T03:00:40.208Z,100481.72
2022-12-09T03:03:23.729Z,100490.41
2022-12-09T03:06:09.487Z,100489.41
2022-12-09T03:08:51.564Z,100497.94
2022-12-09T03:11:24.011Z,100485.69
2022-12-09T03:14:03.695Z,100490.84
2022-12-09T03:16:40.432Z,100485.50
2022-12-09T03:19:21.717Z,100486.34
2022-12-09T03:21:59.820Z,100476.66
2022-12-09T03:24:35.441Z,100480.13
2022-12-09T03:27:11.757Z,100487.22
2022-12-09T03:29:48.564Z,100482.78
2022-12-09T03:32:29.027Z,100481.00
2022-12-09T03:35:10.274Z,100479.16
2022-12-09T03:37:45.922Z,100478.34
2022-12-09T03:40:30.654Z,100478.38
2022-12-09T03:43:08.360Z,100480.97
2022-12-09T03:45:37.880Z,100494.09
2022-12-09T03:48:07.633Z,100489.84
2022-12-09T03:50:50.474Z,100487.31
2022-12-09T03:53:40.271Z,100485.69
2022-12-09T03:56:21.089Z,100487.59
2022-12-09T03:58:59.019Z,100477.28
2022-12-09T04:01:34.576Z,100477.28
2022-12-09T04:04:06.359Z,100477.31
2022-12-09T04:06:38.509Z,100484.41
2022-12-09T04:09:13.389Z,100487.13
2022-12-09T04:11:42.362Z,100492.25
2022-12-09T04:14:16.014Z,100483.66
2022-12-09T04:16:46.317Z,100480.22
2022-12-09T04:19:18.843Z,100477.66
2022-12-09T04:21:47.763Z,100483.88
2022-12-09T04:24:20.897Z,100482.13
2022-12-09T04:26:50.810Z,100485.03
2022-12-09T04:29:19.897Z,100487.59
2022-12-09T04:31:51.310Z,100485.06
2022-12-09T04:34:20.083Z,100483.28
2022-12-09T04:36:57.994Z,100486.09
2022-12-09T04:39:29.721Z,100486.25
2022-12-09T04:42:01.931Z,100481.78
2022-12-09T04:44:36.480Z,100487.91
2022-12-09T04:47:08.798Z,100486.09
2022-12-09T04:49:40.409Z,100486.88
2022-12-09T04:52:09.432Z,100481.94
2022-12-09T04:54:43.001Z,100486.44
2022-12-09T04:57:12.581Z,100491.75
2022-12-09T04:59:44.092Z,100490.88
2022-12-09T05:02:13.518Z,100488.28
2022-12-09T05:04:48.478Z,100486.69
2022-12-09T05:07:17.946Z,100488.53
2022-12-09T05:09:51.554Z,100494.72
2022-12-09T05:12:20.484Z,100493.78
2022-12-09T05:14:54.130Z,100497.38
2022-12-09T05:17:22.852Z,100502.66
2022-12-09T05:19:54.803Z,100510.13
2022-12-09T05:22:23.942Z,100510.13
2022-12-09T05:24:54.822Z,100508.72
2022-12-09T05:27:37.188Z,100503.59
2022-12-09T05:30:14.595Z,100502.00
2022-12-09T05:32:44.185Z,100499.28
2022-12-09T05:35:14.954Z,100503.75
2022-12-09T05:37:43.820Z,100497.63
2022-12-09T05:40:15.210Z,100508.84
2022-12-09T05:42:48.552Z,100510.13
2022-12-09T05:45:18.000Z,100505.72
2022-12-09T05:47:47.945Z,100503.97
2022-12-09T05:50:18.412Z,100498.75
2022-12-09T05:52:47.837Z,100504.19
2022-12-09T05:55:18.988Z,100502.41
2022-12-09T05:57:48.216Z,100496.97
2022-12-09T06:00:19.914Z,100490.81
2022-12-09T06:02:49.388Z,100501.06
2022-12-09T06:05:24.497Z,100495.75
2022-12-09T06:07:54.002Z,100499.97
2022-12-09T06:10:31.938Z,100501.81
2022-12-09T06:13:01.825Z,100502.53
2022-12-09T06:15:34.587Z,100493.66
2022-12-09T06:18:08.293Z,100487.47
2022-12-09T06:20:43.139Z,100491.75
2022-12-09T06:23:12.551Z,100491.66
2022-12-09T06:25:49.086Z,100481.00
2022-12-09T06:28:19.749Z,100487.88
2022-12-09T06:30:50.769Z,100490.31
2022-12-09T06:33:45.914Z,100489.25
2022-12-09T06:36:11.458Z,100488.19
2022-12-09T06:38:48.369Z,100487.34
2022-12-09T06:41:23.853Z,100488.97
2022-12-09T06:44:21.725Z,100487.03
2022-12-09T06:46:54.721Z,100490.41
2022-12-09T06:49:53.395Z,100492.84
2022-12-09T06:52:24.100Z,100498.91
2022-12-09T06:55:07.695Z,100500.59
2022-12-09T06:57:41.894Z,100501.25
2022-12-09T07:00:20.844Z,100510.88
2022-12-09T07:02:57.470Z,100519.34
2022-12-09T07:05:29.611Z,100514.28
2022-12-09T07:08:03.038Z,100510.44
2022-12-09T07:10:33.546Z,100518.22
2022-12-09T07:13:07.294Z,100511.09
2022-12-09T07:15:42.827Z,100511.16
2022-12-09T07:18:17.773Z,100516.59
2022-12-09T07:20:49.400Z,100519.34
2022-12-09T07:23:18.466Z,100527.16
2022-12-09T07:25:57.871Z,100523.75
2022-12-09T07:28:35.162Z,100525.97
2022-12-09T07:31:05.240Z,100532.88
2022-12-09T07:33:35.207Z,100528.69
2022-12-09T07:36:06.466Z,100531.97
2022-12-09T07:38:35.668Z,100534.94
2022-12-09T07:41:08.344Z,100531.16
2022-12-09T07:43:38.574Z,100523.03
2022-12-09T07:46:08.494Z,100528.22
2022-12-09T07:48:37.657Z,100529.84
2022-12-09T07:51:08.668Z,100532.03
2022-12-09T07:53:40.535Z,100528.09
2022-12-09T07:56:17.067Z,100530.97
2022-12-09T07:58:55.258Z,100542.09
2022-12-09T08:01:33.781Z,100544.78
2022-12-09T08:04:12.309Z,100543.66
2022-12-09T08:06:44.921Z,100552.44
2022-12-09T08:09:15.751Z,100547.78
2022-12-09T08:11:46.319Z,100547.88
2022-12-09T08:14:18.735Z,100547.13
2022-12-09T08:16:47.895Z,100556.34
2022-12-09T08:19:17.138Z,100557.19
2022-12-09T08:21:54.804Z,100556.63
2022-12-09T08:24:24.342Z,100548.66
2022-12-09T08:26:54.265Z,100548.47
2022-12-09T08:29:25.788Z,100558.72
2022-12-09T08:31:56.860Z,100564.59
2022-12-09T08:34:27.046Z,100571.91
2022-12-09T08:37:02.028Z,100567.41
2022-12-09T08:39:31.758Z,100574.69
2022-12-09T08:42:10.370Z,100573.59
2022-12-09T08:44:46.873Z,100571.97
2022-12-09T08:47:26.063Z,100560.78
2022-12-09T08:50:01.876Z,100566.03
2022-12-09T08:52:49.162Z,100572.81
2022-12-09T08:55:25.318Z,100579.16
2022-12-09T08:57:54.690Z,100575.75
2022-12-09T09:00:26.972Z,100566.16
2022-12-09T09:02:59.090Z,100575.81
2022-12-09T09:05:29.179Z,100575.00
2022-12-09T09:08:00.189Z,100575.63
2022-12-09T09:10:31.141Z,100573.78
2022-12-09T09:13:00.981Z,100578.38
2022-12-09T09:15:35.311Z,100580.88
2022-12-09T09:18:08.473Z,100578.09
2022-12-09T09:20:44.919Z,100580.53
2022-12-09T09:23:17.789Z,100575.28
2022-12-09T09:25:52.312Z,100571.66
2022-12-09T09:28:24.778Z,100582.50
2022-12-09T09:31:08.343Z,100576.31
2022-12-09T09:33:43.552Z,100583.06
2022-12-09T09:36:21.001Z,100584.56
2022-12-09T09:39:03.191Z,100576.59
2022-12-09T09:41:51.990Z,100581.03
2022-12-09T09:45:03.310Z,100575.34
2022-12-09T09:47:46.287Z,100577.75
2022-12-09T09:50:35.324Z,100571.16
2022-12-09T09:53:21.464Z,100577.31
2022-12-09T09:56:00.207Z,100578.13
2022-12-09T09:58:41.307Z,100579.50
2022-12-09T10:01:17.794Z,100575.28
2022-12-09T10:04:07.921Z,100572.53
2022-12-09T10:06:48.093Z,100575.78
2022-12-09T10:09:30.206Z,100568.75
2022-12-09T10:12:07.575Z,100556.16
2022-12-09T10:14:54.252Z,100553.34
2022-12-09T10:17:36.885Z,100552.19
2022-12-09T10:20:17.330Z,100544.19
2022-12-09T10:22:55.880Z,100555.44
2022-12-09T10:25:35.435Z,100549.00
2022-12-09T10:28:17.391Z,100555.56
2022-12-09T10:30:51.014Z,100548.38
2022-12-09T10:33:28.438Z,100544.53
2022-12-09T10:35:59.211Z,100547.28
2022-12-09T10:38:36.404Z,100542.75
2022-12-09T10:41:41.545Z,100546.94
2022-12-09T10:44:21.784Z,100540.78
2022-12-09T10:46:58.895Z,100543.56
2022-12-09T10:49:37.824Z,100542.25
2022-12-09T10:52:11.290Z,100543.84
2022-12-09T10:54:45.092Z,100541.22
2022-12-09T10:57:31.328Z,100542.69
2022-12-09T11:00:06.469Z,100536.59
2022-12-09T11:02:56.920Z,100537.47
2022-12-09T11:05:38.531Z,100531.59
2022-12-09T11:08:10.023Z,100536.78
2022-12-09T11:10:54.623Z,100537.53
2022-12-09T11:13:55.546Z,100548.16
2022-12-09T11:16:36.993Z,100545.31
2022-12-09T11:19:18.562Z,100548.50
2022-12-09T11:21:54.686Z,100535.19
2022-12-09T11:24:29.317Z,100538.59
2022-12-09T11:27:22.404Z,100537.69
2022-12-09T11:30:22.410Z,100537.41
2022-12-09T11:33:12.297Z,100550.69
2022-12-09T11:36:05.140Z,100543.56
2022-12-09T11:39:02.387Z,100537.41
2022-12-09T11:41:54.008Z,100537.81
2022-12-09T11:44:57.023Z,100533.06
2022-12-09T11:48:25.853Z,100532.41
2022-12-09T11:51:10.652Z,100529.34
2022-12-09T11:53:48.310Z,100525.72
2022-12-09T11:56:26.022Z,100536.75
2022-12-09T11:59:06.916Z,100534.88
2022-12-09T12:02:06.391Z,100528.22
2022-12-09T12:05:08.822Z,100528.31
2022-12-09T12:08:05.863Z,100525.13
2022-12-09T12:10:54.320Z,100521.38
2022-12-09T12:13:47.807Z,100521.50
2022-12-09T12:16:29.230Z,100522.50
2022-12-09T12:19:15.317Z,100520.13
2022-12-09T12:22:30.332Z,100522.34
2022-12-09T12:25:35.370Z,100519.47
2022-12-09T12:28:45.856Z,100518.69
2022-12-09T12:32:01.659Z,100509.34
2022-12-09T12:35:00.792Z,100508.81
2022-12-09T12:37:53.239Z,100506.13
2022-12-09T12:40:44.553Z,100511.59
2022-12-09T12:44:30.548Z,100504.56
2022-12-09T12:47:22.755Z,100497.97
2022-12-09T12:50:35.459Z,100500.97
2022-12-09T12:53:40.883Z,100496.34
2022-12-09T12:56:40.118Z,100501.19
2022-12-09T12:59:32.191Z,100495.44
2022-12-09T13:02:41.279Z,100503.28
2022-12-09T13:05:29.535Z,100496.88
2022-12-09T13:08:11.413Z,100489.06
2022-12-09T13:10:57.975Z,100489.34
2022-12-09T13:13:39.973Z,100490.94
2022-12-09T13:16:30.363Z,100494.50
2022-12-09T13:19:17.263Z,100493.28
2022-12-09T13:21:49.331Z,100493.06
2022-12-09T13:24:41.445Z,100489.75
2022-12-09T13:27:25.617Z,100496.00
2022-12-09T13:30:08.642Z,100488.59
2022-12-09T13:33:23.304Z,100483.22
2022-12-09T13:36:06.467Z,100480.31
2022-12-09T13:38:50.100Z,100483.25
2022-12-09T13:42:08.364Z,100487.03
2022-12-09T13:44:48.057Z,100496.41
2022-12-09T13:47:36.069Z,100496.13
2022-12-09T13:50:11.493Z,100498.69
2022-12-09T13:52:59.374Z,100497.84
2022-12-09T13:55:51.158Z,100497.72
2022-12-09T13:59:06.047Z,100492.44
2022-12-09T14:01:53.800Z,100492.69
2022-12-09T14:04:31.404Z,100483.63
2022-12-09T14:07:25.765Z,100495.19
2022-12-09T14:10:39.313Z,100498.94
2022-12-09T14:13:38.612Z,100498.47
2022-12-09T14:16:42.807Z,100506.47
2022-12-09T14:20:21.447Z,100505.94
2022-12-09T14:23:20.754Z,100499.06
2022-12-09T14:26:35.261Z,100501.53
2022-12-09T14:29:10.024Z,100495.50
2022-12-09T14:32:28.367Z,100500.41
2022-12-09T14:35:26.368Z,100497.09
2022-12-09T14:38:28.768Z,100498.84
2022-12-09T14:41:21.259Z,100503.34
2022-12-09T14:44:34.006Z,100496.59
2022-12-09T14:47:26.876Z,100501.22
2022-12-09T14:50:25.716Z,100502.25
2022-12-09T14:53:23.156Z,100495.34
2022-12-09T14:55:55.124Z,100500.66
2022-12-09T14:58:42.774Z,100497.28
2022-12-09T15:01:20.325Z,100500.94
2022-12-09T15:04:22.693Z,100499.50
2022-12-09T15:10:50.091Z,100497.53
2022-12-09T15:13:28.762Z,100503.69
2022-12-09T15:16:19.938Z,100509.09
2022-12-09T15:19:00.241Z,100507.22
2022-12-09T15:21:35.157Z,100508.19
2022-12-09T15:24:27.788Z,100508.19
2022-12-09T15:27:11.262Z,100510.06
2022-12-09T15:29:40.671Z,100512.78
2022-12-09T15:32:30.010Z,100512.91
2022-12-09T15:35:39.159Z,100510.28
2022-12-09T15:38:20.597Z,100500.53
2022-12-09T15:41:08.817Z,100505.75
2022-12-09T15:46:50.362Z,100507.53
2022-12-09T15:50:01.319Z,100508.66
2022-12-09T15:52:53.216Z,100514.81
2022-12-09T15:58:31.441Z,100515.16
2022-12-09T16:01:08.332Z,100522.25
2022-12-09T16:03:47.058Z,100530.31
2022-12-09T16:06:32.132Z,100534.84
2022-12-09T16:09:03.348Z,100527.94
2022-12-09T16:11:49.236Z,100534.91
2022-12-09T16:14:30.920Z,100527.72
2022-12-09T16:17:20.114Z,100534.88
2022-12-09T16:19:56.013Z,100527.72
2022-12-09T16:22:45.754Z,100534.63
2022-12-09T16:25:27.502Z,100530.97
2022-12-09T16:28:15.243Z,100526.44
2022-12-09T16:31:02.470Z,100535.31
2022-12-09T16:33:44.210Z,100532.69
2022-12-09T16:36:33.348Z,100538.66
2022-12-09T16:39:35.822Z,100526.44
2022-12-09T16:42:37.859Z,100525.69
2022-12-09T16:46:03.155Z,100532.69
2022-12-09T16:48:46.204Z,100538.69
2022-12-09T16:51:25.155Z,100536.09
2022-12-09T16:54:02.590Z,100544.81
2022-12-09T16:56:36.819Z,100550.19
2022-12-09T16:59:21.748Z,100543.97
2022-12-09T17:01:55.951Z,100548.25
2022-12-09T17:04:48.300Z,100542.78
2022-12-09T17:07:23.606Z,100541.88
2022-12-09T17:09:53.091Z,100534.06
2022-12-09T17:12:31.432Z,100543.00
2022-12-09T17:15:03.922Z,100542.13
2022-12-09T17:17:32.951Z,100543.91
2022-12-09T17:20:11.744Z,100553.41
2022-12-09T17:22:47.455Z,100538.44
2022-12-09T17:25:18.672Z,100534.06
2022-12-09T17:27:54.659Z,100541.16
2022-12-09T17:30:26.972Z,100537.91
2022-12-09T17:32:56.746Z,100542.56
2022-12-09T17:35:34.012Z,100551.56
2022-12-09T17:38:14.390Z,100556.09
2022-12-09T17:40:46.791Z,100552.72
2022-12-09T17:43:22.824Z,100556.28
2022-12-09T17:45:52.567Z,100570.25
2022-12-09T17:48:27.902Z,100578.09
2022-12-09T17:51:05.574Z,100575.28
2022-12-09T17:53:53.775Z,100578.75
2022-12-09T17:56:34.848Z,100583.88
2022-12-09T17:59:20.771Z,100578.63
2022-12-09T18:01:56.221Z,100589.06
2022-12-09T18:04:27.046Z,100590.78
2022-12-09T18:07:01.999Z,100595.16
2022-12-09T18:09:38.114Z,100598.53
2022-12-09T18:12:07.676Z,100594.81
2022-12-09T18:14:44.647Z,100601.78
2022-12-09T18:17:20.668Z,100599.84
2022-12-09T18:19:50.803Z,100603.22
2022-12-09T18:22:25.296Z,100603.88
2022-12-09T18:25:04.225Z,100610.81
2022-12-09T18:30:53.287Z,100612.53
2022-12-09T18:33:30.398Z,100598.56
2022-12-09T18:35:59.797Z,100609.91
2022-12-09T18:38:41.994Z,100605.50
2022-12-09T18:41:19.747Z,100608.19
2022-12-09T18:44:10.567Z,100612.63
2022-12-09T18:46:50.125Z,100605.63
2022-12-09T18:49:29.490Z,100610.91
2022-12-09T18:52:06.717Z,100615.31
2022-12-09T18:54:44.326Z,100617.03
2022-12-09T18:57:20.166Z,100616.19
2022-12-09T18:59:58.361Z,100619.63
2022-12-09T19:02:35.622Z,100625.00
2022-12-09T19:05:13.434Z,100617.91
2022-12-09T19:07:50.517Z,100623.16
2022-12-09T19:10:19.546Z,100623.38
2022-12-09T19:12:56.636Z,100624.25
2022-12-09T19:15:30.051Z,100624.25
2022-12-09T19:18:12.717Z,100624.25
2022-12-09T19:20:48.268Z,100618.22
2022-12-09T19:23:29.115Z,100618.22
2022-12-09T19:26:25.197Z,100618.22
2022-12-09T19:29:02.744Z,100623.69
2022-12-09T19:31:55.280Z,100620.19
2022-12-09T19:34:48.225Z,100617.63
2022-12-09T19:37:32.057Z,100616.78
2022-12-09T19:40:02.391Z,100610.75
2022-12-09T19:42:43.924Z,100621.31
2022-12-09T19:45:17.993Z,100625.66
2022-12-09T19:47:56.411Z,100627.47
2022-12-09T19:50:29.895Z,100630.97
2022-12-09T19:53:00.021Z,100620.66
2022-12-09T19:55:33.318Z,100623.31
2022-12-09T19:58:09.488Z,100620.66
2022-12-09T20:00:48.866Z,100627.63
2022-12-09T20:03:26.747Z,100635.59
2022-12-09T20:06:14.865Z,100631.19
2022-12-09T20:08:57.129Z,100621.56
2022-12-09T20:11:31.910Z,100619.03
2022-12-09T20:14:05.578Z,100628.59
2022-12-09T20:16:38.373Z,100626.00
2022-12-09T20:22:03.382Z,100636.53
2022-12-09T20:24:36.292Z,100638.25
2022-12-09T20:27:06.051Z,100637.53
2022-12-09T20:29:40.623Z,100641.91
2022-12-09T20:32:11.310Z,100644.50
2022-12-09T20:34:48.043Z,100645.25
2022-12-09T20:37:18.990Z,100649.66
2022-12-09T20:39:49.748Z,100647.06
2022-12-09T20:42:24.541Z,100655.72
2022-12-09T20:44:59.200Z,100641.88
2022-12-09T20:47:29.159Z,100641.00
2022-12-09T20:49:59.114Z,100640.88
2022-12-09T20:52:37.353Z,100653.28
2022-12-09T20:55:09.134Z,100648.13
2022-12-09T20:57:47.392Z,100647.16
2022-12-09T21:00:17.546Z,100650.50
2022-12-09T21:02:46.294Z,100653.97
2022-12-09T21:05:15.042Z,100650.63
2022-12-09T21:07:46.257Z,100648.91
2022-12-09T21:10:17.757Z,100651.59
2022-12-09T21:12:47.125Z,100653.25
2022-12-09T21:15:16.559Z,100653.44
2022-12-09T21:17:48.645Z,100653.50
2022-12-09T21:20:19.126Z,100652.63
2022-12-09T21:23:10.613Z,100650.00
2022-12-09T21:25:43.247Z,100648.28
2022-12-09T21:28:15.723Z,100648.19
2022-12-09T21:30:46.824Z,100650.75
2022-12-09T21:33:18.876Z,100641.19
2022-12-09T21:35:52.466Z,100648.19
2022-12-09T21:38:23.025Z,100645.63
2022-12-09T21:40:52.628Z,100643.13
2022-12-09T21:43:26.166Z,100652.63
2022-12-09T21:45:56.275Z,100657.03
2022-12-09T21:48:27.411Z,100659.63
2022-12-09T21:51:04.509Z,100656.09
2022-12-09T21:53:36.258Z,100653.69
2022-12-09T21:56:11.183Z,100651.72
2022-12-09T21:58:43.698Z,100660.53
2022-12-09T22:01:17.911Z,100658.75
2022-12-09T22:03:53.101Z,100654.34
2022-12-09T22:06:22.317Z,100657.97
2022-12-09T22:08:54.415Z,100663.19
2022-12-09T22:11:30.968Z,100666.59
2022-12-09T22:14:04.044Z,100677.13
2022-12-09T22:16:47.280Z,100678.84
2022-12-09T22:19:21.764Z,100670.03
2022-12-09T22:21:53.685Z,100677.22
2022-12-09T22:24:44.837Z,100676.38
2022-12-09T22:27:19.674Z,100678.16
2022-12-09T22:29:55.482Z,100679.13
2022-12-09T22:32:25.739Z,100674.78
2022-12-09T22:34:59.414Z,100681.06
2022-12-09T22:37:46.621Z,100676.53
2022-12-09T22:40:24.327Z,100671.19
2022-12-09T22:42:59.054Z,100674.78
2022-12-09T22:45:50.617Z,100675.78
2022-12-09T22:48:20.902Z,100674.88
2022-12-09T22:50:50.495Z,100690.56
2022-12-09T22:53:22.451Z,100688.97
2022-12-09T22:55:56.987Z,100678.53
2022-12-09T22:58:27.768Z,100685.53
2022-12-09T23:01:14.685Z,100679.41
2022-12-09T23:03:53.762Z,100689.72
2022-12-09T23:06:36.028Z,100696.91
2022-12-09T23:09:42.137Z,100692.72
2022-12-09T23:12:14.860Z,100681.13
2022-12-09T23:17:27.380Z,100682.28
2022-12-09T23:19:58.379Z,100682.28
2022-12-09T23:22:31.685Z,100682.31
2022-12-09T23:25:06.349Z,100686.75
2022-12-09T23:27:37.337Z,100690.22
2022-12-09T23:30:08.471Z,100684.81
2022-12-09T23:32:38.290Z,100691.84
2022-12-09T23:35:12.040Z,100693.69
2022-12-09T23:37:41.688Z,100697.22
2022-12-09T23:40:17.252Z,100695.53
2022-12-09T23:43:01.601Z,100697.09
2022-12-09T23:45:42.740Z,100688.09
2022-12-09T23:48:32.620Z,100697.69
2022-12-09T23:51:12.354Z,100688.31
2022-12-09T23:53:45.333Z,100693.69
2022-12-09T23:56:20.424Z,100690.03
2022-12-09T23:59:06.015Z,100698.00
